createdAt,value
2022-12-18T00:00:27.707Z,101097.06
2022-12-18T00:01:37.124Z,101086.66
2022-12-18T00:02:18.738Z,101087.53
2022-12-18T00:03:00.648Z,101090.94
2022-12-18T00:03:42.866Z,101078.09
2022-12-18T00:04:26.577Z,101079.84
2022-12-18T00:05:08.326Z,101078.97
2022-12-18T00:05:51.495Z,101058.69
2022-12-18T00:06:33.730Z,101066.19
2022-12-18T00:07:15.324Z,101082.31
2022-12-18T00:07:56.949Z,101085.78
2022-12-18T00:08:39.439Z,101074.88
2022-12-18T00:09:21.287Z,101080.75
2022-12-18T00:10:06.994Z,101011.44
2022-12-18T00:10:48.603Z,101047.16
2022-12-18T00:11:31.621Z,101080.03
2022-12-18T00:12:57.399Z,101084.34
2022-12-18T00:13:39.505Z,101077.44
2022-12-18T00:14:21.303Z,101080.09
2022-12-18T00:15:03.018Z,101087.13
2022-12-18T00:15:44.664Z,101078.25
2022-12-18T00:16:28.341Z,101080.28
2022-12-18T00:17:09.968Z,101086.22
2022-12-18T00:17:51.638Z,101099.03
2022-12-18T00:18:33.636Z,101074.31
2022-12-18T00:19:15.904Z,101075.94
2022-12-18T00:19:57.500Z,101048.91
2022-12-18T00:20:40.896Z,101085.34
2022-12-18T00:21:22.894Z,101083.56
2022-12-18T00:22:04.597Z,101069.22
2022-12-18T00:22:46.212Z,101086.97
2022-12-18T00:23:28.530Z,101085.34
2022-12-18T00:24:11.436Z,101094.59
2022-12-18T00:24:53.058Z,101028.59
2022-12-18T00:25:35.788Z,101040.31
2022-12-18T00:26:29.306Z,101096.19
2022-12-18T00:27:14.042Z,101058.03
2022-12-18T00:27:56.179Z,101093.53
2022-12-18T00:28:38.077Z,101089.28
2022-12-18T00:29:20.041Z,101093.50
2022-12-18T00:30:01.670Z,101090.13
2022-12-18T00:30:43.365Z,101104.59
2022-12-18T00:31:26.197Z,101088.50
2022-12-18T00:32:08.526Z,101071.50
2022-12-18T00:32:50.101Z,101106.25
2022-12-18T00:33:32.203Z,101102.81
2022-12-18T00:34:14.394Z,101101.97
2022-12-18T00:34:58.481Z,101094.31
2022-12-18T00:35:40.112Z,101089.28
2022-12-18T00:36:25.290Z,101094.31
2022-12-18T00:37:07.312Z,101095.16
2022-12-18T00:37:48.885Z,101086.00
2022-12-18T00:38:30.694Z,101101.22
2022-12-18T00:39:13.198Z,101062.31
2022-12-18T00:39:54.758Z,101107.19
2022-12-18T00:40:36.320Z,101075.81
2022-12-18T00:41:38.997Z,101096.06
2022-12-18T00:42:39.660Z,101066.66
2022-12-18T00:43:21.334Z,101108.13
2022-12-18T00:44:03.811Z,101020.13
2022-12-18T00:44:45.388Z,101086.06
2022-12-18T00:45:32.015Z,101100.50
2022-12-18T00:46:13.772Z,101114.19
2022-12-18T00:46:55.503Z,101093.00
2022-12-18T00:47:37.134Z,101103.06
2022-12-18T00:48:18.930Z,101105.75
2022-12-18T00:49:00.550Z,101101.38
2022-12-18T00:49:42.217Z,101093.78
2022-12-18T00:50:25.525Z,101105.72
2022-12-18T00:51:07.718Z,101108.34
2022-12-18T00:51:49.548Z,101088.69
2022-12-18T00:52:31.235Z,101090.25
2022-12-18T00:53:13.229Z,101112.47
2022-12-18T00:53:55.072Z,101095.38
2022-12-18T00:54:36.659Z,101074.13
2022-12-18T00:55:19.000Z,101098.72
2022-12-18T00:56:02.269Z,101099.50
2022-12-18T00:56:50.970Z,101065.47
2022-12-18T00:57:32.558Z,101069.69
2022-12-18T00:58:16.174Z,101062.88
2022-12-18T00:58:57.997Z,101099.31
2022-12-18T00:59:39.649Z,101093.44
2022-12-18T01:00:21.901Z,101098.44
2022-12-18T01:01:05.606Z,101079.97
2022-12-18T01:01:49.994Z,101101.22
2022-12-18T01:02:31.890Z,101091.94
2022-12-18T01:03:15.012Z,101098.63
2022-12-18T01:04:01.043Z,101098.59
2022-12-18T01:04:42.646Z,101119.13
2022-12-18T01:05:24.281Z,101101.19
2022-12-18T01:06:08.307Z,101064.03
2022-12-18T01:06:49.932Z,101098.72
2022-12-18T01:07:31.664Z,101075.94
2022-12-18T01:08:13.317Z,101090.41
2022-12-18T01:08:57.405Z,101119.47
2022-12-18T01:09:38.962Z,101102.44
2022-12-18T01:10:21.059Z,101112.75
2022-12-18T01:11:16.000Z,101098.31
2022-12-18T01:11:57.550Z,101104.22
2022-12-18T01:12:39.741Z,101074.56
2022-12-18T01:13:21.354Z,101076.28
2022-12-18T01:14:05.692Z,101117.84
2022-12-18T01:14:47.366Z,101025.50
2022-12-18T01:15:29.875Z,101084.69
2022-12-18T01:16:15.801Z,101093.25
2022-12-18T01:16:57.393Z,101100.97
2022-12-18T01:17:39.205Z,101089.00
2022-12-18T01:18:20.809Z,101110.22
2022-12-18T01:19:02.506Z,101095.94
2022-12-18T01:19:44.157Z,101112.00
2022-12-18T01:20:25.811Z,101091.53
2022-12-18T01:21:09.186Z,101112.81
2022-12-18T01:21:52.373Z,101100.00
2022-12-18T01:22:33.924Z,101038.03
2022-12-18T01:23:18.096Z,101105.78
2022-12-18T01:23:59.720Z,101098.16
2022-12-18T01:24:41.282Z,101106.56
2022-12-18T01:25:22.862Z,101102.34
2022-12-18T01:26:14.678Z,101111.50
2022-12-18T01:26:58.030Z,101075.13
2022-12-18T01:27:39.670Z,101102.22
2022-12-18T01:28:21.226Z,101093.84
2022-12-18T01:29:02.846Z,101107.28
2022-12-18T01:29:44.500Z,101102.97
2022-12-18T01:30:26.294Z,101125.94
2022-12-18T01:31:34.760Z,101118.97
2022-12-18T01:32:17.645Z,101040.22
2022-12-18T01:32:59.233Z,101091.69
2022-12-18T01:33:41.461Z,101079.88
2022-12-18T01:34:24.770Z,101096.72
2022-12-18T01:35:07.911Z,101091.50
2022-12-18T01:35:49.560Z,101085.47
2022-12-18T01:36:34.518Z,101108.47
2022-12-18T01:37:16.107Z,101106.66
2022-12-18T01:38:00.643Z,101083.13
2022-12-18T01:38:43.474Z,101115.28
2022-12-18T01:39:25.038Z,101062.66
2022-12-18T01:40:07.560Z,101070.34
2022-12-18T01:40:49.098Z,101102.53
2022-12-18T01:41:52.178Z,101099.16
2022-12-18T01:42:36.851Z,101088.34
2022-12-18T01:43:18.407Z,101100.03
2022-12-18T01:44:01.174Z,101097.50
2022-12-18T01:45:05.910Z,101077.13
2022-12-18T01:45:47.844Z,101094.13
2022-12-18T01:46:29.464Z,101112.09
2022-12-18T01:47:18.226Z,101087.56
2022-12-18T01:48:07.985Z,101090.25
2022-12-18T01:48:56.321Z,101116.53
2022-12-18T01:49:39.502Z,101093.69
2022-12-18T01:50:31.792Z,101119.09
2022-12-18T01:51:13.698Z,101039.50
2022-12-18T01:51:55.837Z,101108.84
2022-12-18T01:52:42.744Z,101116.56
2022-12-18T01:53:24.830Z,101102.88
2022-12-18T01:54:06.476Z,101104.72
2022-12-18T01:54:51.952Z,101110.59
2022-12-18T01:55:49.157Z,100997.16
2022-12-18T01:56:30.781Z,101091.16
2022-12-18T01:57:12.430Z,101114.00
2022-12-18T01:57:56.975Z,101074.97
2022-12-18T01:58:52.511Z,101119.19
2022-12-18T01:59:35.690Z,101122.63
2022-12-18T02:00:20.574Z,101115.78
2022-12-18T02:01:02.316Z,101115.06
2022-12-18T02:01:44.093Z,101110.84
2022-12-18T02:02:28.759Z,101115.91
2022-12-18T02:03:10.606Z,101109.09
2022-12-18T02:03:53.045Z,101099.69
2022-12-18T02:04:34.927Z,101106.56
2022-12-18T02:05:23.513Z,101092.91
2022-12-18T02:06:11.901Z,101073.22
2022-12-18T02:07:32.173Z,101100.50
2022-12-18T02:08:28.191Z,100977.84
2022-12-18T02:09:13.940Z,101104.91
2022-12-18T02:09:59.864Z,101104.94
2022-12-18T02:10:55.131Z,101079.50
2022-12-18T02:12:08.760Z,101105.63
2022-12-18T02:13:04.273Z,101040.31
2022-12-18T02:13:52.350Z,101103.72
2022-12-18T02:14:43.908Z,101090.09
2022-12-18T02:15:34.300Z,101085.00
2022-12-18T02:16:21.638Z,101095.88
2022-12-18T02:17:15.939Z,101090.03
2022-12-18T02:18:06.292Z,101115.69
2022-12-18T02:18:56.903Z,101112.34
2022-12-18T02:19:44.139Z,101106.41
2022-12-18T02:20:34.187Z,101120.94
2022-12-18T02:21:35.337Z,101052.22
2022-12-18T02:22:28.156Z,101098.63
2022-12-18T02:23:48.152Z,101082.69
2022-12-18T02:24:49.190Z,101113.13
2022-12-18T02:26:06.975Z,101111.28
2022-12-18T02:26:56.880Z,101109.69
2022-12-18T02:27:46.122Z,101089.22
2022-12-18T02:28:36.145Z,101109.38
2022-12-18T02:29:30.541Z,101101.78
2022-12-18T02:30:13.194Z,101091.69
2022-12-18T02:30:58.759Z,101105.25
2022-12-18T02:31:46.206Z,101111.00
2022-12-18T02:32:31.805Z,101116.31
2022-12-18T02:33:15.102Z,101104.31
2022-12-18T02:34:03.617Z,101116.94
2022-12-18T02:34:51.981Z,101094.13
2022-12-18T02:35:35.519Z,101111.03
2022-12-18T02:36:19.779Z,101106.06
2022-12-18T02:37:07.643Z,101116.22
2022-12-18T02:37:49.895Z,101115.47
2022-12-18T02:38:32.579Z,101111.28
2022-12-18T02:39:23.200Z,101107.97
2022-12-18T02:40:16.469Z,101139.50
2022-12-18T02:40:59.410Z,101081.72
2022-12-18T02:41:42.562Z,101127.59
2022-12-18T02:42:25.001Z,101046.41
2022-12-18T02:43:12.697Z,101124.22
2022-12-18T02:43:59.716Z,101108.94
2022-12-18T02:44:50.914Z,101110.63
2022-12-18T02:45:35.748Z,101072.69
2022-12-18T02:46:31.808Z,101108.50
2022-12-18T02:47:19.237Z,101101.50
2022-12-18T02:48:03.798Z,101083.56
2022-12-18T02:48:48.227Z,101038.72
2022-12-18T02:49:41.335Z,101116.47
2022-12-18T02:50:38.858Z,101099.50
2022-12-18T02:51:39.594Z,101088.38
2022-12-18T02:52:33.566Z,101109.56
2022-12-18T02:53:33.639Z,101102.78
2022-12-18T02:54:40.095Z,101077.31
2022-12-18T02:55:45.700Z,101105.22
2022-12-18T02:56:45.188Z,101079.16
2022-12-18T02:57:37.750Z,101113.78
2022-12-18T02:58:58.847Z,101106.94
2022-12-18T03:00:06.850Z,101091.84
2022-12-18T03:01:14.891Z,101115.63
2022-12-18T03:02:22.407Z,101124.25
2022-12-18T03:03:17.276Z,101099.53
2022-12-18T03:04:05.590Z,101101.19
2022-12-18T03:05:16.889Z,101106.13
2022-12-18T03:06:11.761Z,101107.75
2022-12-18T03:07:09.563Z,101105.09
2022-12-18T03:08:09.829Z,101099.06
2022-12-18T03:08:59.729Z,101074.56
2022-12-18T03:09:48.782Z,101114.41
2022-12-18T03:10:33.131Z,101092.16
2022-12-18T03:11:16.190Z,101073.50
2022-12-18T03:12:40.241Z,101063.28
2022-12-18T03:13:37.215Z,101061.78
2022-12-18T03:14:23.072Z,100996.63
2022-12-18T03:15:18.058Z,101067.84
2022-12-18T03:16:03.139Z,101092.50
2022-12-18T03:16:47.817Z,101086.66
2022-12-18T03:17:32.980Z,101105.25
2022-12-18T03:18:19.953Z,101057.09
2022-12-18T03:19:25.295Z,101105.50
2022-12-18T03:20:14.138Z,101112.47
2022-12-18T03:21:00.011Z,101092.25
2022-12-18T03:21:46.319Z,101105.94
2022-12-18T03:22:34.708Z,101074.50
2022-12-18T03:23:26.289Z,101087.28
2022-12-18T03:24:10.334Z,101122.16
2022-12-18T03:24:53.669Z,101068.59
2022-12-18T03:25:40.581Z,101107.63
2022-12-18T03:26:26.318Z,101124.72
2022-12-18T03:27:16.980Z,101057.00
2022-12-18T03:28:04.234Z,101085.47
2022-12-18T03:28:52.116Z,101105.84
2022-12-18T03:29:55.076Z,101094.81
2022-12-18T03:30:44.890Z,101061.69
2022-12-18T03:31:30.558Z,101116.78
2022-12-18T03:32:20.200Z,101112.41
2022-12-18T03:33:07.590Z,101102.09
2022-12-18T03:33:58.389Z,101098.78
2022-12-18T03:34:52.838Z,101104.50
2022-12-18T03:35:41.162Z,101084.88
2022-12-18T03:36:23.740Z,101081.56
2022-12-18T03:37:07.844Z,101114.44
2022-12-18T03:37:51.173Z,101113.56
2022-12-18T03:38:33.360Z,101108.38
2022-12-18T03:39:15.421Z,101116.91
2022-12-18T03:40:03.218Z,101078.72
2022-12-18T03:41:05.185Z,101109.03
2022-12-18T03:42:16.046Z,101101.38
2022-12-18T03:43:17.648Z,101090.41
2022-12-18T03:44:16.916Z,101108.78
2022-12-18T03:45:22.701Z,101106.19
2022-12-18T03:46:23.070Z,101033.22
2022-12-18T03:47:08.877Z,101102.59
2022-12-18T03:48:17.094Z,101096.50
2022-12-18T03:49:09.893Z,101098.28
2022-12-18T03:49:51.781Z,101102.28
2022-12-18T03:50:54.952Z,101055.91
2022-12-18T03:51:36.660Z,101115.94
2022-12-18T03:52:26.897Z,101126.16
2022-12-18T03:53:24.077Z,101109.25
2022-12-18T03:54:09.833Z,101147.66
2022-12-18T03:54:59.067Z,101103.25
2022-12-18T03:55:41.739Z,101123.63
2022-12-18T03:56:27.592Z,101104.97
2022-12-18T03:57:22.448Z,101081.19
2022-12-18T03:58:09.221Z,101115.00
2022-12-18T03:59:06.913Z,101100.44
2022-12-18T03:59:55.384Z,101117.41
2022-12-18T04:00:40.910Z,101109.69
2022-12-18T04:01:32.991Z,101096.97
2022-12-18T04:02:18.362Z,101114.78
2022-12-18T04:03:02.839Z,101111.47
2022-12-18T04:03:51.704Z,101114.72
2022-12-18T04:04:38.881Z,101100.41
2022-12-18T04:05:23.515Z,101113.94
2022-12-18T04:06:07.197Z,101110.50
2022-12-18T04:06:51.336Z,101113.72
2022-12-18T04:07:34.759Z,101107.00
2022-12-18T04:08:16.435Z,101109.31
2022-12-18T04:09:06.491Z,101125.25
2022-12-18T04:09:57.480Z,101130.28
2022-12-18T04:10:39.422Z,101124.25
2022-12-18T04:11:21.080Z,101119.06
2022-12-18T04:12:03.704Z,101098.75
2022-12-18T04:12:45.440Z,101058.09
2022-12-18T04:13:32.720Z,101125.03
2022-12-18T04:14:18.311Z,101098.72
2022-12-18T04:15:03.107Z,101124.19
2022-12-18T04:15:44.815Z,101137.94
2022-12-18T04:16:30.148Z,101087.81
2022-12-18T04:17:15.677Z,101077.03
2022-12-18T04:17:57.510Z,101132.72
2022-12-18T04:18:41.974Z,101123.41
2022-12-18T04:19:24.050Z,101126.63
2022-12-18T04:20:07.918Z,101133.44
2022-12-18T04:20:50.341Z,101110.63
2022-12-18T04:21:32.893Z,101040.38
2022-12-18T04:22:15.231Z,101130.00
2022-12-18T04:23:01.121Z,101131.78
2022-12-18T04:23:43.341Z,101129.31
2022-12-18T04:24:25.213Z,101141.28
2022-12-18T04:25:17.793Z,101143.00
2022-12-18T04:26:14.377Z,101131.97
2022-12-18T04:27:08.286Z,101104.00
2022-12-18T04:27:56.154Z,101087.88
2022-12-18T04:28:37.934Z,101140.25
2022-12-18T04:29:19.639Z,101109.72
2022-12-18T04:30:02.132Z,101119.06
2022-12-18T04:30:45.356Z,101141.06
2022-12-18T04:31:27.335Z,101107.88
2022-12-18T04:32:09.386Z,101138.44
2022-12-18T04:32:52.570Z,101150.44
2022-12-18T04:33:35.331Z,101078.44
2022-12-18T04:34:17.669Z,101101.97
2022-12-18T04:35:07.501Z,101129.84
2022-12-18T04:35:50.191Z,101135.78
2022-12-18T04:36:32.820Z,101128.03
2022-12-18T04:37:14.527Z,101126.25
2022-12-18T04:37:56.170Z,101122.97
2022-12-18T04:38:37.787Z,101121.03
2022-12-18T04:39:23.634Z,101098.06
2022-12-18T04:40:11.156Z,101119.22
2022-12-18T04:40:57.041Z,101109.91
2022-12-18T04:41:42.154Z,101119.16
2022-12-18T04:42:24.761Z,101093.84
2022-12-18T04:43:06.565Z,101122.50
2022-12-18T04:43:48.244Z,101106.38
2022-12-18T04:44:29.974Z,101125.03
2022-12-18T04:45:11.637Z,101118.16
2022-12-18T04:45:53.233Z,101016.66
2022-12-18T04:46:34.864Z,101079.34
2022-12-18T04:47:16.517Z,101089.41
2022-12-18T04:47:59.409Z,101102.22
2022-12-18T04:48:41.258Z,101110.56
2022-12-18T04:49:22.958Z,101104.53
2022-12-18T04:50:05.093Z,101113.13
2022-12-18T04:50:47.979Z,101008.22
2022-12-18T04:51:29.602Z,101113.97
2022-12-18T04:52:11.232Z,101101.28
2022-12-18T04:52:53.496Z,101097.16
2022-12-18T04:53:35.269Z,101119.91
2022-12-18T04:54:16.874Z,101085.81
2022-12-18T04:54:58.484Z,101138.38
2022-12-18T04:55:40.062Z,100969.91
2022-12-18T04:56:22.363Z,101124.47
2022-12-18T04:57:04.090Z,101138.13
2022-12-18T04:57:45.727Z,101053.28
2022-12-18T04:58:27.327Z,101118.38
2022-12-18T04:59:08.893Z,101104.72
2022-12-18T04:59:50.497Z,101093.56
2022-12-18T05:00:32.089Z,101128.31
2022-12-18T05:01:16.246Z,101097.91
2022-12-18T05:01:58.002Z,101130.97
2022-12-18T05:02:40.039Z,101126.78
2022-12-18T05:03:21.763Z,101111.72
2022-12-18T05:04:04.109Z,101133.59
2022-12-18T05:04:45.831Z,101130.09
2022-12-18T05:05:28.032Z,101130.81
2022-12-18T05:06:10.195Z,101125.56
2022-12-18T05:06:51.916Z,101122.13
2022-12-18T05:07:33.505Z,101123.78
2022-12-18T05:08:15.129Z,101097.69
2022-12-18T05:08:56.739Z,101125.75
2022-12-18T05:09:38.294Z,101123.09
2022-12-18T05:10:19.861Z,101121.47
2022-12-18T05:11:07.843Z,101118.25
2022-12-18T05:11:49.507Z,101129.09
2022-12-18T05:12:32.196Z,101115.00
2022-12-18T05:13:13.775Z,101137.69
2022-12-18T05:13:58.145Z,101138.38
2022-12-18T05:14:39.842Z,101133.22
2022-12-18T05:15:21.405Z,100987.94
2022-12-18T05:16:03.704Z,101162.47
2022-12-18T05:16:45.410Z,101147.13
2022-12-18T05:17:27.466Z,101121.72
2022-12-18T05:18:09.498Z,101143.91
2022-12-18T05:18:51.199Z,101149.19
2022-12-18T05:19:32.797Z,101137.28
2022-12-18T05:20:14.805Z,101146.94
2022-12-18T05:20:56.488Z,101145.38
2022-12-18T05:21:38.077Z,101153.84
2022-12-18T05:22:19.795Z,101150.50
2022-12-18T05:23:01.637Z,101140.53
2022-12-18T05:23:43.703Z,101093.22
2022-12-18T05:24:25.693Z,101137.97
2022-12-18T05:25:07.570Z,101150.78
2022-12-18T05:26:03.363Z,101149.94
2022-12-18T05:26:44.965Z,101116.13
2022-12-18T05:27:26.520Z,101141.47
2022-12-18T05:28:08.105Z,101133.06
2022-12-18T05:28:49.678Z,101138.22
2022-12-18T05:29:31.276Z,101156.25
2022-12-18T05:30:14.061Z,101137.53
2022-12-18T05:30:58.317Z,101153.66
2022-12-18T05:31:40.211Z,101140.25
2022-12-18T05:32:21.853Z,101055.59
2022-12-18T05:33:03.488Z,101177.72
2022-12-18T05:33:45.300Z,101137.00
2022-12-18T05:34:26.845Z,101170.91
2022-12-18T05:35:10.287Z,101154.84
2022-12-18T05:35:56.873Z,101151.63
2022-12-18T05:36:38.439Z,101142.22
2022-12-18T05:37:20.009Z,101170.09
2022-12-18T05:38:01.633Z,101168.47
2022-12-18T05:38:43.420Z,101148.19
2022-12-18T05:39:25.023Z,101157.41
2022-12-18T05:40:07.323Z,101154.06
2022-12-18T05:40:50.588Z,101126.22
2022-12-18T05:41:32.218Z,101120.28
2022-12-18T05:42:13.844Z,101173.75
2022-12-18T05:42:55.431Z,101124.63
2022-12-18T05:43:39.119Z,101168.66
2022-12-18T05:44:21.021Z,101095.84
2022-12-18T05:45:02.861Z,101166.16
2022-12-18T05:45:44.844Z,101155.41
2022-12-18T05:46:27.253Z,101174.91
2022-12-18T05:47:08.838Z,101157.78
2022-12-18T05:47:50.455Z,101139.13
2022-12-18T05:48:32.058Z,101146.84
2022-12-18T05:49:16.429Z,101182.31
2022-12-18T05:49:58.177Z,101173.56
2022-12-18T05:50:41.814Z,101124.44
2022-12-18T05:51:23.813Z,101183.78
2022-12-18T05:52:05.668Z,101130.41
2022-12-18T05:52:47.310Z,101169.31
2022-12-18T05:53:28.858Z,101168.50
2022-12-18T05:54:10.448Z,101167.69
2022-12-18T05:54:52.042Z,101034.13
2022-12-18T05:55:37.608Z,101155.91
2022-12-18T05:56:21.656Z,101135.66
2022-12-18T05:57:03.358Z,101159.38
2022-12-18T05:57:44.971Z,101102.50
2022-12-18T05:58:27.614Z,101118.53
2022-12-18T05:59:09.686Z,101147.38
2022-12-18T05:59:51.262Z,101159.31
2022-12-18T06:00:35.770Z,101152.53
2022-12-18T06:01:20.338Z,101159.34
2022-12-18T06:02:02.182Z,101132.06
2022-12-18T06:02:47.910Z,101085.44
2022-12-18T06:03:33.875Z,101095.66
2022-12-18T06:04:15.927Z,101152.47
2022-12-18T06:04:57.532Z,101090.59
2022-12-18T06:05:41.688Z,101113.59
2022-12-18T06:06:26.732Z,101146.56
2022-12-18T06:07:08.341Z,101141.41
2022-12-18T06:07:49.985Z,101128.69
2022-12-18T06:08:31.719Z,101143.97
2022-12-18T06:09:13.553Z,101132.22
2022-12-18T06:09:55.146Z,101138.94
2022-12-18T06:10:37.397Z,101143.31
2022-12-18T06:11:22.593Z,101155.97
2022-12-18T06:12:04.456Z,101133.97
2022-12-18T06:12:46.142Z,101145.69
2022-12-18T06:13:27.744Z,101149.09
2022-12-18T06:14:10.850Z,101123.84
2022-12-18T06:14:52.417Z,101145.06
2022-12-18T06:15:34.176Z,101124.53
2022-12-18T06:16:15.910Z,101164.50
2022-12-18T06:16:57.619Z,101147.44
2022-12-18T06:17:39.268Z,101160.19
2022-12-18T06:18:21.022Z,101115.22
2022-12-18T06:19:05.848Z,101163.63
2022-12-18T06:19:47.657Z,101141.59
2022-12-18T06:20:33.914Z,101165.34
2022-12-18T06:21:15.736Z,101154.22
2022-12-18T06:21:59.827Z,101173.13
2022-12-18T06:22:41.634Z,101121.44
2022-12-18T06:23:24.080Z,101167.97
2022-12-18T06:24:06.165Z,101134.97
2022-12-18T06:24:47.743Z,101143.44
2022-12-18T06:25:29.371Z,101168.00
2022-12-18T06:26:13.301Z,101164.56
2022-12-18T06:26:54.929Z,101163.84
2022-12-18T06:27:36.555Z,101168.03
2022-12-18T06:28:18.328Z,101146.91
2022-12-18T06:29:00.396Z,101064.16
2022-12-18T06:29:42.034Z,101082.53
2022-12-18T06:30:23.897Z,101164.63
2022-12-18T06:31:07.032Z,101078.28
2022-12-18T06:31:48.876Z,101128.25
2022-12-18T06:32:30.656Z,101081.81
2022-12-18T06:33:12.243Z,101151.91
2022-12-18T06:33:53.801Z,101168.94
2022-12-18T06:34:37.606Z,101168.94
2022-12-18T06:35:19.209Z,101171.47
2022-12-18T06:36:13.586Z,101156.03
2022-12-18T06:36:55.217Z,101120.56
2022-12-18T06:37:36.946Z,101125.31
2022-12-18T06:38:18.676Z,101116.50
2022-12-18T06:39:00.374Z,101168.09
2022-12-18T06:39:41.986Z,101146.88
2022-12-18T06:40:23.582Z,101102.22
2022-12-18T06:41:10.942Z,101180.03
2022-12-18T06:41:52.672Z,101162.06
2022-12-18T06:42:34.377Z,101164.63
2022-12-18T06:43:15.931Z,101171.16
2022-12-18T06:44:00.100Z,101157.66
2022-12-18T06:44:41.928Z,101156.00
2022-12-18T06:45:23.482Z,101173.50
2022-12-18T06:46:05.944Z,101180.38
2022-12-18T06:46:47.635Z,101165.94
2022-12-18T06:47:29.248Z,101170.50
2022-12-18T06:48:10.801Z,101176.22
2022-12-18T06:48:52.410Z,101132.97
2022-12-18T06:49:34.221Z,101141.56
2022-12-18T06:50:15.860Z,101200.19
2022-12-18T06:50:57.518Z,101184.78
2022-12-18T06:51:39.325Z,101196.81
2022-12-18T06:52:21.025Z,101168.22
2022-12-18T06:53:02.599Z,101164.63
2022-12-18T06:53:44.381Z,101110.44
2022-12-18T06:54:26.074Z,101192.59
2022-12-18T06:55:12.401Z,101180.59
2022-12-18T06:56:06.435Z,101182.41
2022-12-18T06:56:50.924Z,101182.63
2022-12-18T06:57:32.676Z,101187.69
2022-12-18T06:58:14.368Z,101184.38
2022-12-18T06:58:56.041Z,101188.56
2022-12-18T06:59:37.667Z,101170.81
2022-12-18T07:00:19.334Z,101195.34
2022-12-18T07:01:02.985Z,101203.00
2022-12-18T07:01:44.948Z,101204.63
2022-12-18T07:02:27.038Z,101113.88
2022-12-18T07:03:10.800Z,101185.97
2022-12-18T07:03:55.214Z,101214.91
2022-12-18T07:04:36.937Z,101178.28
2022-12-18T07:05:18.483Z,101211.47
2022-12-18T07:06:00.355Z,101192.66
2022-12-18T07:06:41.972Z,101192.63
2022-12-18T07:07:23.541Z,101202.84
2022-12-18T07:08:05.132Z,101195.28
2022-12-18T07:08:49.874Z,101179.88
2022-12-18T07:09:31.420Z,101198.56
2022-12-18T07:10:13.101Z,101196.91
2022-12-18T07:10:56.383Z,101196.88
2022-12-18T07:11:38.286Z,101193.63
2022-12-18T07:12:20.009Z,101211.41
2022-12-18T07:13:01.710Z,101175.69
2022-12-18T07:13:43.943Z,101202.84
2022-12-18T07:14:25.539Z,101187.66
2022-12-18T07:15:07.909Z,101209.69
2022-12-18T07:15:49.690Z,101200.13
2022-12-18T07:16:31.410Z,101190.88
2022-12-18T07:17:13.200Z,101203.66
2022-12-18T07:17:54.926Z,101204.47
2022-12-18T07:18:36.907Z,101195.91
2022-12-18T07:19:18.596Z,101193.41
2022-12-18T07:20:01.979Z,101149.44
2022-12-18T07:20:43.728Z,101200.28
2022-12-18T07:21:26.122Z,101195.19
2022-12-18T07:22:07.770Z,101124.25
2022-12-18T07:22:54.708Z,101188.75
2022-12-18T07:23:38.519Z,101205.47
2022-12-18T07:24:20.413Z,101169.91
2022-12-18T07:25:02.035Z,101170.81
2022-12-18T07:25:43.669Z,101208.09
2022-12-18T07:26:25.273Z,101213.25
2022-12-18T07:27:06.914Z,101201.28
2022-12-18T07:27:49.638Z,101200.53
2022-12-18T07:28:33.257Z,101201.34
2022-12-18T07:29:14.912Z,101215.84
2022-12-18T07:29:56.632Z,101182.84
2022-12-18T07:30:39.303Z,101179.34
2022-12-18T07:31:22.512Z,101198.97
2022-12-18T07:32:04.424Z,101212.41
2022-12-18T07:32:46.137Z,101191.34
2022-12-18T07:33:30.874Z,101175.16
2022-12-18T07:34:14.064Z,101182.03
2022-12-18T07:34:55.700Z,101017.75
2022-12-18T07:35:37.395Z,101207.16
2022-12-18T07:36:19.977Z,101143.59
2022-12-18T07:37:04.617Z,101151.22
2022-12-18T07:37:46.568Z,101132.59
2022-12-18T07:38:28.254Z,101218.97
2022-12-18T07:39:12.015Z,101205.16
2022-12-18T07:39:53.626Z,101194.19
2022-12-18T07:40:35.164Z,101188.13
2022-12-18T07:41:16.986Z,101215.19
2022-12-18T07:42:18.512Z,101220.25
2022-12-18T07:43:00.131Z,101220.28
2022-12-18T07:43:43.085Z,101217.69
2022-12-18T07:44:25.001Z,101214.28
2022-12-18T07:45:07.083Z,101225.44
2022-12-18T07:45:51.583Z,101195.72
2022-12-18T07:46:33.173Z,101211.81
2022-12-18T07:47:14.799Z,101223.88
2022-12-18T07:47:56.448Z,101195.06
2022-12-18T07:48:38.071Z,101218.91
2022-12-18T07:49:19.660Z,101222.28
2022-12-18T07:50:01.317Z,101161.34
2022-12-18T07:50:42.938Z,101224.03
2022-12-18T07:51:24.640Z,101217.25
2022-12-18T07:52:06.237Z,101220.59
2022-12-18T07:52:47.847Z,101228.31
2022-12-18T07:53:29.575Z,101225.72
2022-12-18T07:54:11.190Z,101157.97
2022-12-18T07:54:52.895Z,101186.78
2022-12-18T07:55:59.950Z,101202.84
2022-12-18T07:56:36.313Z,101195.25
2022-12-18T07:57:48.461Z,101225.78
2022-12-18T07:58:20.437Z,101225.88
2022-12-18T07:59:04.859Z,101224.16
2022-12-18T07:59:46.895Z,101208.09
2022-12-18T08:00:28.861Z,101233.25
2022-12-18T08:01:12.539Z,101157.78
2022-12-18T08:01:54.357Z,101150.81
2022-12-18T08:02:36.303Z,101239.09
2022-12-18T08:03:17.997Z,101166.22
2022-12-18T08:03:59.811Z,101239.19
2022-12-18T08:04:41.574Z,101228.13
2022-12-18T08:05:23.400Z,101196.09
2022-12-18T08:06:08.011Z,101243.53
2022-12-18T08:06:49.602Z,101229.84
2022-12-18T08:07:31.239Z,101253.84
2022-12-18T08:08:13.371Z,101243.50
2022-12-18T08:08:56.640Z,101240.06
2022-12-18T08:09:38.247Z,101223.97
2022-12-18T08:10:20.909Z,101240.94
2022-12-18T08:11:03.319Z,101232.97
2022-12-18T08:11:45.007Z,101243.28
2022-12-18T08:12:26.652Z,101256.13
2022-12-18T08:13:08.253Z,101245.81
2022-12-18T08:13:49.891Z,101266.47
2022-12-18T08:14:31.617Z,101221.41
2022-12-18T08:15:13.335Z,101238.22
2022-12-18T08:16:03.250Z,101228.97
2022-12-18T08:16:44.994Z,101243.41
2022-12-18T08:17:26.683Z,101247.75
2022-12-18T08:18:13.899Z,101245.88
2022-12-18T08:18:56.054Z,101204.22
2022-12-18T08:19:37.648Z,101216.91
2022-12-18T08:20:19.381Z,101225.25
2022-12-18T08:21:16.004Z,101234.41
2022-12-18T08:21:57.887Z,101241.22
2022-12-18T08:22:39.957Z,101198.75
2022-12-18T08:23:21.840Z,101235.97
2022-12-18T08:24:03.899Z,101241.06
2022-12-18T08:24:46.057Z,101235.16
2022-12-18T08:25:27.797Z,101224.09
2022-12-18T08:26:10.471Z,101238.50
2022-12-18T08:27:20.943Z,101207.84
2022-12-18T08:27:54.725Z,101192.47
2022-12-18T08:28:36.701Z,101240.81
2022-12-18T08:29:21.553Z,101232.97
2022-12-18T08:30:04.777Z,101210.03
2022-12-18T08:30:52.963Z,101217.56
2022-12-18T08:31:35.274Z,101225.06
2022-12-18T08:32:17.057Z,101214.81
2022-12-18T08:32:59.093Z,101236.75
2022-12-18T08:33:41.865Z,101220.41
2022-12-18T08:34:23.926Z,101208.75